Sm Busan — 3EIZ8 — position and weather

sailwx.info

Track history (hours):
 
Tides and Currents Weather Stations Pressure Air Temp Water Temp Dewpoint Dewpoint Depression Visibility Wind Speed Wind Dir Waves Ship Positions

Sm Busan

Last reported at 2018-Jun-22 11:08 UTC. Time now 2018-Jun-24 11:06 UTC.
Position N 34°57' E 128°49'.

Length 304 m; draft 11.1 m.

Type: Cargo ship. MMSI: 372445000.

Date/timePositionNaut miles runAvg speedWind from/ knotsBaromVisibWave heightAir tempDewpointWater temp
2018-Jun-22 11:08N 34°57' E 128°49'1 0.1
2018-Jun-21 19:41N 34°59' E 128°49'2 8.5
2018-Jun-21 19:29N 34°57' E 128°50'5 9.0
2018-Jun-21 18:56N 34°53' E 128°53'393 9.6
2018-Jun-20 01:56N 31°05' E 122°31'510.4
2018-Jun-20 01:28N 31°06' E 122°26'611.9
2018-Jun-20 01:00N 31°06' E 122°20'714.1
2018-Jun-20 00:29N 31°10' E 122°12'714.9
2018-Jun-20 00:00N 31°14' E 122°05'714.5
2018-Jun-19 23:30N 31°15' E 121°57'814.7
2018-Jun-19 22:57N 31°18' E 121°48'1 0.0
2018-Jun-19 08:06N 31°18' E 121°47'5 9.7
2018-Jun-19 07:34N 31°16' E 121°53'1 9.4
2018-Jun-19 07:30N 31°16' E 121°54'5 9.2
2018-Jun-19 06:59N 31°15' E 121°59'510.4
2018-Jun-19 06:30N 31°14' E 122°05'5 9.2
2018-Jun-19 05:58N 31°11' E 122°10'4 9.3
2018-Jun-19 05:30N 31°09' E 122°14'5 9.8
2018-Jun-19 04:59N 31°06' E 122°19'4 7.7
2018-Jun-19 04:30N 31°06' E 122°23'510.6
2018-Jun-19 04:00N 31°07' E 122°29'  
2018-Jun-13 03:38N 34°58' E 128°49'3 5.8
2018-Jun-13 03:10N 34°58' E 128°53'1 2.1
2018-Jun-13 02:46N 34°58' E 128°54'3 4.1
2018-Jun-13 02:08N 34°57' E 128°57'1 4.9
2018-Jun-13 01:57N 34°58' E 128°58'2 5.4
2018-Jun-13 01:30N 34°58' E 129°01'3 5.1
2018-Jun-13 01:00N 34°59' E 129°04'4 6.8
2018-Jun-13 00:28N 35°01' E 129°07'3 5.3
2018-Jun-13 00:00N 35°04' E 129°08'3 6.4
2018-Jun-12 23:30N 35°06' E 129°05'0 0.7
2018-Jun-12 22:59N 35°06' E 129°05'0 0.0
2018-Jun-12 22:29N 35°06' E 129°05'0 0.0
2018-Jun-12 21:59N 35°06' E 129°05'0 0.0
2018-Jun-12 21:29N 35°06' E 129°05'0 0.0
2018-Jun-12 20:59N 35°06' E 129°05'0 0.0
2018-Jun-12 20:29N 35°06' E 129°05'0 0.0
2018-Jun-12 19:59N 35°06' E 129°05'0 0.0
2018-Jun-12 19:29N 35°06' E 129°05'0 0.0
2018-Jun-12 18:59N 35°06' E 129°05'0 0.0
2018-Jun-12 18:29N 35°06' E 129°05'0 0.0
2018-Jun-12 17:59N 35°06' E 129°05'0 0.0
2018-Jun-12 17:29N 35°06' E 129°05'0 0.0
2018-Jun-12 16:59N 35°06' E 129°05'0 0.0
2018-Jun-12 16:29N 35°06' E 129°05'0 0.0
2018-Jun-12 15:59N 35°06' E 129°05'0 0.0
2018-Jun-12 15:29N 35°06' E 129°05'0 0.0
2018-Jun-12 14:59N 35°06' E 129°05'0 0.1
2018-Jun-12 14:30N 35°06' E 129°05'4 7.0
2018-Jun-12 14:00N 35°04' E 129°09'5 9.7
2018-Jun-12 13:30N 35°04' E 129°15'  
Track history (hours):
 
Tides and Currents Weather Stations Pressure Air Temp Water Temp Dewpoint Dewpoint Depression Visibility Wind Speed Wind Dir Waves Ship Positions

Sm Busan

Last reported at 2018-Jun-22 11:08 UTC. Time now 2018-Jun-24 11:06 UTC.
Position N 34°57' E 128°49'.

Length 304 m; draft 11.1 m.

Type: Cargo ship. MMSI: 372445000.

Date/timePositionNaut miles runAvg speedWind from/ knotsBaromVisibWave heightAir tempDewpointWater temp
2018-Jun-22 11:08N 34°57' E 128°49'1 0.1
2018-Jun-21 19:41N 34°59' E 128°49'2 8.5
2018-Jun-21 19:29N 34°57' E 128°50'5 9.0
2018-Jun-21 18:56N 34°53' E 128°53'393 9.6
2018-Jun-20 01:56N 31°05' E 122°31'510.4
2018-Jun-20 01:28N 31°06' E 122°26'611.9
2018-Jun-20 01:00N 31°06' E 122°20'714.1
2018-Jun-20 00:29N 31°10' E 122°12'714.9
2018-Jun-20 00:00N 31°14' E 122°05'714.5
2018-Jun-19 23:30N 31°15' E 121°57'814.7
2018-Jun-19 22:57N 31°18' E 121°48'1 0.0
2018-Jun-19 08:06N 31°18' E 121°47'5 9.7
2018-Jun-19 07:34N 31°16' E 121°53'1 9.4
2018-Jun-19 07:30N 31°16' E 121°54'5 9.2
2018-Jun-19 06:59N 31°15' E 121°59'510.4
2018-Jun-19 06:30N 31°14' E 122°05'5 9.2
2018-Jun-19 05:58N 31°11' E 122°10'4 9.3
2018-Jun-19 05:30N 31°09' E 122°14'5 9.8
2018-Jun-19 04:59N 31°06' E 122°19'4 7.7
2018-Jun-19 04:30N 31°06' E 122°23'510.6
2018-Jun-19 04:00N 31°07' E 122°29'  
2018-Jun-13 03:38N 34°58' E 128°49'3 5.8
2018-Jun-13 03:10N 34°58' E 128°53'1 2.1
2018-Jun-13 02:46N 34°58' E 128°54'3 4.1
2018-Jun-13 02:08N 34°57' E 128°57'1 4.9
2018-Jun-13 01:57N 34°58' E 128°58'2 5.4
2018-Jun-13 01:30N 34°58' E 129°01'3 5.1
2018-Jun-13 01:00N 34°59' E 129°04'4 6.8
2018-Jun-13 00:28N 35°01' E 129°07'3 5.3
2018-Jun-13 00:00N 35°04' E 129°08'3 6.4
2018-Jun-12 23:30N 35°06' E 129°05'0 0.7
2018-Jun-12 22:59N 35°06' E 129°05'0 0.0
2018-Jun-12 22:29N 35°06' E 129°05'0 0.0
2018-Jun-12 21:59N 35°06' E 129°05'0 0.0
2018-Jun-12 21:29N 35°06' E 129°05'0 0.0
2018-Jun-12 20:59N 35°06' E 129°05'0 0.0
2018-Jun-12 20:29N 35°06' E 129°05'0 0.0
2018-Jun-12 19:59N 35°06' E 129°05'0 0.0
2018-Jun-12 19:29N 35°06' E 129°05'0 0.0
2018-Jun-12 18:59N 35°06' E 129°05'0 0.0
2018-Jun-12 18:29N 35°06' E 129°05'0 0.0
2018-Jun-12 17:59N 35°06' E 129°05'0 0.0
2018-Jun-12 17:29N 35°06' E 129°05'0 0.0
2018-Jun-12 16:59N 35°06' E 129°05'0 0.0
2018-Jun-12 16:29N 35°06' E 129°05'0 0.0
2018-Jun-12 15:59N 35°06' E 129°05'0 0.0
2018-Jun-12 15:29N 35°06' E 129°05'0 0.0
2018-Jun-12 14:59N 35°06' E 129°05'0 0.1
2018-Jun-12 14:30N 35°06' E 129°05'4 7.0
2018-Jun-12 14:00N 35°04' E 129°09'5 9.7
2018-Jun-12 13:30N 35°04' E 129°15'  

Dump ship's entire track history